sensor_id;sensor_type;location;lat;lon;timestamp;pressure;altitude;pressure_sealevel;temperature;humidity
48718;BME280;34521;33.042;-96.586;2023-04-05T00:00:03;98213.87;;;21.16;37.75
48718;BME280;34521;33.042;-96.586;2023-04-05T00:02:28;98218.01;;;20.88;37.36
48718;BME280;34521;33.042;-96.586;2023-04-05T00:04:53;98225.19;;;20.73;37.94
48718;BME280;34521;33.042;-96.586;2023-04-05T00:07:17;98228.27;;;21.71;36.29
48718;BME280;34521;33.042;-96.586;2023-04-05T00:09:43;98238.44;;;21.90;35.90
48718;BME280;34521;33.042;-96.586;2023-04-05T00:12:08;98249.39;;;22.25;35.51
48718;BME280;34521;33.042;-96.586;2023-04-05T00:14:33;98270.33;;;22.57;35.10
48718;BME280;34521;33.042;-96.586;2023-04-05T00:16:59;98267.09;;;22.42;35.43
48718;BME280;34521;33.042;-96.586;2023-04-05T00:19:24;98273.67;;;22.21;35.90
48718;BME280;34521;33.042;-96.586;2023-04-05T00:21:49;98273.71;;;22.15;36.07
48718;BME280;34521;33.042;-96.586;2023-04-05T00:24:14;98243.09;;;21.49;37.37
48718;BME280;34521;33.042;-96.586;2023-04-05T00:26:39;98226.30;;;21.01;37.49
48718;BME280;34521;33.042;-96.586;2023-04-05T00:29:04;98206.40;;;20.75;37.42
48718;BME280;34521;33.042;-96.586;2023-04-05T00:31:29;98230.54;;;21.45;37.20
48718;BME280;34521;33.042;-96.586;2023-04-05T00:33:54;98225.54;;;22.27;35.60
48718;BME280;34521;33.042;-96.586;2023-04-05T00:36:20;98225.11;;;22.15;35.51
48718;BME280;34521;33.042;-96.586;2023-04-05T00:38:46;98246.76;;;22.36;35.54
48718;BME280;34521;33.042;-96.586;2023-04-05T00:41:12;98250.36;;;22.30;35.39
48718;BME280;34521;33.042;-96.586;2023-04-05T00:43:35;98264.93;;;22.69;35.36
48718;BME280;34521;33.042;-96.586;2023-04-05T00:46:01;98274.84;;;22.32;35.60
48718;BME280;34521;33.042;-96.586;2023-04-05T00:48:26;98295.93;;;21.58;36.43
48718;BME280;34521;33.042;-96.586;2023-04-05T00:50:52;98263.38;;;21.31;37.88
48718;BME280;34521;33.042;-96.586;2023-04-05T00:53:18;98264.80;;;20.55;38.20
48718;BME280;34521;33.042;-96.586;2023-04-05T00:55:42;98239.41;;;21.10;37.85
48718;BME280;34521;33.042;-96.586;2023-04-05T00:58:07;98241.30;;;21.76;36.37
48718;BME280;34521;33.042;-96.586;2023-04-05T01:00:32;98250.35;;;21.96;36.18
48718;BME280;34521;33.042;-96.586;2023-04-05T01:03:00;98226.44;;;22.23;35.54
48718;BME280;34521;33.042;-96.586;2023-04-05T01:05:33;98193.64;;;22.22;35.59
48718;BME280;34521;33.042;-96.586;2023-04-05T01:07:55;98223.26;;;22.36;35.49
48718;BME280;34521;33.042;-96.586;2023-04-05T01:10:14;98248.23;;;21.89;35.93
48718;BME280;34521;33.042;-96.586;2023-04-05T01:12:39;98218.59;;;22.21;35.95
48718;BME280;34521;33.042;-96.586;2023-04-05T01:15:04;98245.28;;;21.50;37.21
48718;BME280;34521;33.042;-96.586;2023-04-05T01:17:30;98276.73;;;20.43;38.40
48718;BME280;34521;33.042;-96.586;2023-04-05T01:19:57;98247.63;;;20.60;37.45
48718;BME280;34521;33.042;-96.586;2023-04-05T01:22:38;98275.28;;;20.36;38.53
48718;BME280;34521;33.042;-96.586;2023-04-05T01:27:15;98257.69;;;22.03;35.35
48718;BME280;34521;33.042;-96.586;2023-04-05T01:29:43;98248.09;;;22.37;34.97
48718;BME280;34521;33.042;-96.586;2023-04-05T01:32:03;98230.13;;;22.75;34.54
48718;BME280;34521;33.042;-96.586;2023-04-05T01:34:31;98228.77;;;21.98;35.34
48718;BME280;34521;33.042;-96.586;2023-04-05T01:36:53;98287.78;;;22.16;35.23
48718;BME280;34521;33.042;-96.586;2023-04-05T01:39:16;98325.61;;;22.07;35.52
48718;BME280;34521;33.042;-96.586;2023-04-05T01:41:39;98334.47;;;22.26;35.65
48718;BME280;34521;33.042;-96.586;2023-04-05T01:44:04;98337.66;;;20.97;37.20
48718;BME280;34521;33.042;-96.586;2023-04-05T01:46:29;98316.25;;;20.61;37.23
48718;BME280;34521;33.042;-96.586;2023-04-05T01:48:54;98301.44;;;21.36;36.85
48718;BME280;34521;33.042;-96.586;2023-04-05T01:51:20;98299.74;;;21.98;35.88
48718;BME280;34521;33.042;-96.586;2023-04-05T01:53:46;98285.77;;;21.62;35.85
48718;BME280;34521;33.042;-96.586;2023-04-05T01:56:11;98290.21;;;21.97;35.43
48718;BME280;34521;33.042;-96.586;2023-04-05T01:58:37;98307.13;;;22.37;34.97
48718;BME280;34521;33.042;-96.586;2023-04-05T02:01:02;98328.83;;;22.56;34.79
48718;BME280;34521;33.042;-96.586;2023-04-05T02:03:27;98342.43;;;22.27;35.25
48718;BME280;34521;33.042;-96.586;2023-04-05T02:05:52;98335.31;;;22.29;35.36
48718;BME280;34521;33.042;-96.586;2023-04-05T02:08:18;98342.86;;;22.25;35.46
48718;BME280;34521;33.042;-96.586;2023-04-05T02:10:43;98333.63;;;21.33;36.95
48718;BME280;34521;33.042;-96.586;2023-04-05T02:13:08;98346.53;;;20.60;37.29
48718;BME280;34521;33.042;-96.586;2023-04-05T02:15:33;98378.12;;;20.10;38.35
48718;BME280;34521;33.042;-96.586;2023-04-05T02:17:59;98351.63;;;21.60;36.03
48718;BME280;34521;33.042;-96.586;2023-04-05T02:20:24;98335.03;;;21.81;35.61
48718;BME280;34521;33.042;-96.586;2023-04-05T02:22:50;98381.82;;;21.90;35.32
48718;BME280;34521;33.042;-96.586;2023-04-05T02:25:14;98398.25;;;22.53;34.87
48718;BME280;34521;33.042;-96.586;2023-04-05T02:27:40;98421.07;;;22.37;34.80
48718;BME280;34521;33.042;-96.586;2023-04-05T02:30:07;98421.65;;;22.32;34.97
48718;BME280;34521;33.042;-96.586;2023-04-05T02:32:30;98385.62;;;21.95;35.61
48718;BME280;34521;33.042;-96.586;2023-04-05T02:34:56;98386.80;;;21.94;35.76
48718;BME280;34521;33.042;-96.586;2023-04-05T02:37:21;98420.96;;;21.48;37.05
48718;BME280;34521;33.042;-96.586;2023-04-05T02:39:47;98433.43;;;20.19;38.12
48718;BME280;34521;33.042;-96.586;2023-04-05T02:42:14;98439.84;;;20.39;37.39
48718;BME280;34521;33.042;-96.586;2023-04-05T02:44:38;98432.41;;;20.90;37.82
48718;BME280;34521;33.042;-96.586;2023-04-05T02:47:03;98420.11;;;21.47;37.33
48718;BME280;34521;33.042;-96.586;2023-04-05T02:49:28;98435.60;;;21.63;38.05
48718;BME280;34521;33.042;-96.586;2023-04-05T02:51:54;98434.68;;;21.36;38.39
48718;BME280;34521;33.042;-96.586;2023-04-05T02:54:18;98427.91;;;21.31;38.57
48718;BME280;34521;33.042;-96.586;2023-04-05T02:56:43;98450.31;;;22.44;37.45
48718;BME280;34521;33.042;-96.586;2023-04-05T02:59:08;98461.45;;;21.65;38.26
48718;BME280;34521;33.042;-96.586;2023-04-05T03:01:34;98477.94;;;22.03;37.73
48718;BME280;34521;33.042;-96.586;2023-04-05T03:03:59;98473.79;;;21.87;38.17
48718;BME280;34521;33.042;-96.586;2023-04-05T03:06:25;98456.48;;;22.25;37.66
48718;BME280;34521;33.042;-96.586;2023-04-05T03:08:50;98447.29;;;22.23;37.31
48718;BME280;34521;33.042;-96.586;2023-04-05T03:11:16;98451.69;;;20.90;38.09
48718;BME280;34521;33.042;-96.586;2023-04-05T03:13:41;98460.03;;;21.31;38.06
48718;BME280;34521;33.042;-96.586;2023-04-05T03:16:08;98473.34;;;21.97;37.37
48718;BME280;34521;33.042;-96.586;2023-04-05T03:18:31;98478.43;;;21.72;37.32
48718;BME280;34521;33.042;-96.586;2023-04-05T03:20:57;98496.18;;;21.75;37.74
48718;BME280;34521;33.042;-96.586;2023-04-05T03:23:22;98495.96;;;22.31;37.06
48718;BME280;34521;33.042;-96.586;2023-04-05T03:25:47;98495.43;;;22.12;37.34
48718;BME280;34521;33.042;-96.586;2023-04-05T03:28:12;98492.96;;;21.98;37.36
48718;BME280;34521;33.042;-96.586;2023-04-05T03:30:37;98486.31;;;21.71;37.79
48718;BME280;34521;33.042;-96.586;2023-04-05T03:33:03;98481.37;;;22.24;37.14
48718;BME280;34521;33.042;-96.586;2023-04-05T03:35:28;98488.36;;;22.17;37.40
48718;BME280;34521;33.042;-96.586;2023-04-05T03:37:54;98488.23;;;21.59;37.41
48718;BME280;34521;33.042;-96.586;2023-04-05T03:40:19;98490.28;;;22.15;36.35
48718;BME280;34521;33.042;-96.586;2023-04-05T03:42:44;98491.23;;;21.72;36.74
48718;BME280;34521;33.042;-96.586;2023-04-05T03:45:09;98493.99;;;21.98;36.69
48718;BME280;34521;33.042;-96.586;2023-04-05T03:47:34;98494.61;;;22.00;37.07
48718;BME280;34521;33.042;-96.586;2023-04-05T03:49:59;98496.28;;;22.57;36.23
48718;BME280;34521;33.042;-96.586;2023-04-05T03:52:25;98490.13;;;22.76;36.26
48718;BME280;34521;33.042;-96.586;2023-04-05T03:54:50;98490.46;;;22.68;36.24
48718;BME280;34521;33.042;-96.586;2023-04-05T03:57:16;98499.43;;;22.15;37.09
48718;BME280;34521;33.042;-96.586;2023-04-05T03:59:41;98503.10;;;22.15;37.21
48718;BME280;34521;33.042;-96.586;2023-04-05T04:02:07;98505.94;;;22.24;37.07
48718;BME280;34521;33.042;-96.586;2023-04-05T04:04:32;98501.01;;;22.07;37.46
48718;BME280;34521;33.042;-96.586;2023-04-05T04:06:57;98493.97;;;21.86;37.09
48718;BME280;34521;33.042;-96.586;2023-04-05T04:09:23;98496.45;;;21.55;36.95
48718;BME280;34521;33.042;-96.586;2023-04-05T04:11:48;98485.50;;;21.87;37.09
48718;BME280;34521;33.042;-96.586;2023-04-05T04:14:14;98472.54;;;22.32;36.29
48718;BME280;34521;33.042;-96.586;2023-04-05T04:16:39;98489.37;;;22.48;36.31
48718;BME280;34521;33.042;-96.586;2023-04-05T04:19:04;98492.54;;;22.82;35.90
48718;BME280;34521;33.042;-96.586;2023-04-05T04:21:30;98483.29;;;23.02;36.02
48718;BME280;34521;33.042;-96.586;2023-04-05T04:23:55;98477.26;;;22.48;36.55
48718;BME280;34521;33.042;-96.586;2023-04-05T04:26:20;98482.09;;;22.23;37.06
48718;BME280;34521;33.042;-96.586;2023-04-05T04:28:46;98482.98;;;22.56;37.05
48718;BME280;34521;33.042;-96.586;2023-04-05T04:31:12;98488.53;;;22.97;36.25
48718;BME280;34521;33.042;-96.586;2023-04-05T04:33:36;98483.18;;;22.55;36.88
48718;BME280;34521;33.042;-96.586;2023-04-05T04:36:07;98492.30;;;22.45;36.40
48718;BME280;34521;33.042;-96.586;2023-04-05T04:38:27;98496.79;;;21.70;36.39
48718;BME280;34521;33.042;-96.586;2023-04-05T04:40:52;98507.52;;;22.35;36.29
48718;BME280;34521;33.042;-96.586;2023-04-05T04:43:17;98507.93;;;22.16;36.60
48718;BME280;34521;33.042;-96.586;2023-04-05T04:45:42;98513.38;;;22.36;37.01
48718;BME280;34521;33.042;-96.586;2023-04-05T04:48:07;98504.14;;;23.14;36.42
48718;BME280;34521;33.042;-96.586;2023-04-05T04:50:33;98504.07;;;23.29;36.27
48718;BME280;34521;33.042;-96.586;2023-04-05T04:52:59;98505.46;;;22.69;36.40
48718;BME280;34521;33.042;-96.586;2023-04-05T04:55:22;98509.43;;;22.46;36.76
48718;BME280;34521;33.042;-96.586;2023-04-05T04:57:52;98506.01;;;22.48;37.02
48718;BME280;34521;33.042;-96.586;2023-04-05T05:00:14;98497.21;;;23.10;36.58
48718;BME280;34521;33.042;-96.586;2023-04-05T05:02:38;98494.82;;;23.32;36.35
48718;BME280;34521;33.042;-96.586;2023-04-05T05:05:04;98498.15;;;21.87;37.58
48718;BME280;34521;33.042;-96.586;2023-04-05T05:07:29;98499.63;;;22.15;36.86
48718;BME280;34521;33.042;-96.586;2023-04-05T05:09:53;98492.34;;;22.63;35.12
48718;BME280;34521;33.042;-96.586;2023-04-05T05:12:20;98500.07;;;22.35;35.29
48718;BME280;34521;33.042;-96.586;2023-04-05T05:14:44;98501.11;;;23.06;34.95
48718;BME280;34521;33.042;-96.586;2023-04-05T05:17:09;98498.94;;;22.99;35.10
48718;BME280;34521;33.042;-96.586;2023-04-05T05:19:34;98500.42;;;22.92;34.63
48718;BME280;34521;33.042;-96.586;2023-04-05T05:21:59;98511.33;;;22.92;35.01
48718;BME280;34521;33.042;-96.586;2023-04-05T05:24:24;98497.59;;;22.49;35.29
48718;BME280;34521;33.042;-96.586;2023-04-05T05:26:49;98498.50;;;23.05;35.30
48718;BME280;34521;33.042;-96.586;2023-04-05T05:29:15;98488.14;;;22.44;35.79
48718;BME280;34521;33.042;-96.586;2023-04-05T05:31:40;98489.17;;;22.12;36.03
48718;BME280;34521;33.042;-96.586;2023-04-05T05:34:05;98488.29;;;21.99;36.32
48718;BME280;34521;33.042;-96.586;2023-04-05T05:36:30;98490.70;;;21.92;36.73
48718;BME280;34521;33.042;-96.586;2023-04-05T05:38:55;98490.33;;;21.68;36.26
48718;BME280;34521;33.042;-96.586;2023-04-05T05:41:21;98491.56;;;21.66;35.81
48718;BME280;34521;33.042;-96.586;2023-04-05T05:43:46;98483.98;;;22.19;35.56
48718;BME280;34521;33.042;-96.586;2023-04-05T05:46:11;98490.72;;;22.37;36.57
48718;BME280;34521;33.042;-96.586;2023-04-05T05:48:37;98498.31;;;22.33;36.63
48718;BME280;34521;33.042;-96.586;2023-04-05T05:51:02;98503.92;;;22.84;35.95
48718;BME280;34521;33.042;-96.586;2023-04-05T05:53:27;98511.94;;;22.65;36.04
48718;BME280;34521;33.042;-96.586;2023-04-05T05:55:53;98522.05;;;22.27;36.83
48718;BME280;34521;33.042;-96.586;2023-04-05T05:58:18;98494.54;;;22.89;35.59
48718;BME280;34521;33.042;-96.586;2023-04-05T06:00:43;98502.78;;;22.97;35.38
48718;BME280;34521;33.042;-96.586;2023-04-05T06:03:08;98511.97;;;22.81;35.32
48718;BME280;34521;33.042;-96.586;2023-04-05T06:05:33;98510.63;;;22.07;36.35
48718;BME280;34521;33.042;-96.586;2023-04-05T06:07:58;98515.57;;;21.85;36.93
48718;BME280;34521;33.042;-96.586;2023-04-05T06:10:23;98537.90;;;21.46;37.37
48718;BME280;34521;33.042;-96.586;2023-04-05T06:12:50;98546.37;;;21.36;36.74
48718;BME280;34521;33.042;-96.586;2023-04-05T06:15:14;98540.03;;;21.62;36.74
48718;BME280;34521;33.042;-96.586;2023-04-05T06:17:39;98522.88;;;22.46;35.50
48718;BME280;34521;33.042;-96.586;2023-04-05T06:20:05;98522.41;;;22.85;35.13
48718;BME280;34521;33.042;-96.586;2023-04-05T06:22:29;98523.36;;;22.54;35.59
48718;BME280;34521;33.042;-96.586;2023-04-05T06:24:54;98516.31;;;22.83;35.25
48718;BME280;34521;33.042;-96.586;2023-04-05T06:27:20;98523.61;;;22.87;34.90
48718;BME280;34521;33.042;-96.586;2023-04-05T06:29:45;98536.06;;;22.98;34.79
48718;BME280;34521;33.042;-96.586;2023-04-05T06:32:10;98537.14;;;22.37;35.38
48718;BME280;34521;33.042;-96.586;2023-04-05T06:34:35;98540.56;;;22.39;35.71
48718;BME280;34521;33.042;-96.586;2023-04-05T06:37:00;98544.48;;;21.98;36.61
48718;BME280;34521;33.042;-96.586;2023-04-05T06:39:25;98539.75;;;21.06;37.32
48718;BME280;34521;33.042;-96.586;2023-04-05T06:41:50;98538.28;;;21.29;36.27
48718;BME280;34521;33.042;-96.586;2023-04-05T06:44:15;98533.30;;;21.55;36.47
48718;BME280;34521;33.042;-96.586;2023-04-05T06:46:40;98536.65;;;22.35;35.54
48718;BME280;34521;33.042;-96.586;2023-04-05T06:49:06;98533.51;;;22.76;34.80
48718;BME280;34521;33.042;-96.586;2023-04-05T06:51:32;98527.83;;;22.62;34.76
48718;BME280;34521;33.042;-96.586;2023-04-05T06:53:57;98527.12;;;23.03;34.56
48718;BME280;34521;33.042;-96.586;2023-04-05T06:56:22;98528.14;;;23.16;34.45
48718;BME280;34521;33.042;-96.586;2023-04-05T06:58:47;98526.53;;;22.79;34.66
48718;BME280;34521;33.042;-96.586;2023-04-05T07:01:12;98530.07;;;23.04;34.76
48718;BME280;34521;33.042;-96.586;2023-04-05T07:03:38;98539.88;;;23.12;34.72
48718;BME280;34521;33.042;-96.586;2023-04-05T07:06:03;98537.60;;;23.14;34.43
48718;BME280;34521;33.042;-96.586;2023-04-05T07:08:29;98535.81;;;21.37;36.99
48718;BME280;34521;33.042;-96.586;2023-04-05T07:10:54;98534.24;;;21.19;36.66
48718;BME280;34521;33.042;-96.586;2023-04-05T07:13:19;98534.29;;;21.08;36.75
48718;BME280;34521;33.042;-96.586;2023-04-05T07:15:44;98547.31;;;22.25;35.57
48718;BME280;34521;33.042;-96.586;2023-04-05T07:18:09;98548.13;;;21.95;35.73
48718;BME280;34521;33.042;-96.586;2023-04-05T07:20:33;98548.29;;;22.25;35.13
48718;BME280;34521;33.042;-96.586;2023-04-05T07:22:58;98545.04;;;22.68;34.64
48718;BME280;34521;33.042;-96.586;2023-04-05T07:25:24;98548.13;;;22.91;34.38
48718;BME280;34521;33.042;-96.586;2023-04-05T07:27:49;98548.58;;;22.77;34.59
48718;BME280;34521;33.042;-96.586;2023-04-05T07:30:14;98543.58;;;22.98;34.71
48718;BME280;34521;33.042;-96.586;2023-04-05T07:32:39;98545.62;;;23.26;34.40
48718;BME280;34521;33.042;-96.586;2023-04-05T07:35:04;98539.58;;;23.22;34.53
48718;BME280;34521;33.042;-96.586;2023-04-05T07:37:29;98534.61;;;23.16;34.66
48718;BME280;34521;33.042;-96.586;2023-04-05T07:39:54;98538.82;;;20.90;37.65
48718;BME280;34521;33.042;-96.586;2023-04-05T07:42:20;98541.40;;;21.01;37.15
48718;BME280;34521;33.042;-96.586;2023-04-05T07:44:46;98546.78;;;21.12;38.46
48718;BME280;34521;33.042;-96.586;2023-04-05T07:47:10;98548.48;;;21.70;37.23
48718;BME280;34521;33.042;-96.586;2023-04-05T07:49:36;98545.70;;;22.22;35.93
48718;BME280;34521;33.042;-96.586;2023-04-05T07:52:00;98540.94;;;22.57;35.46
48718;BME280;34521;33.042;-96.586;2023-04-05T07:54:26;98539.84;;;22.42;35.67
48718;BME280;34521;33.042;-96.586;2023-04-05T07:56:51;98541.82;;;22.13;35.78
48718;BME280;34521;33.042;-96.586;2023-04-05T07:59:16;98539.01;;;22.93;35.06
48718;BME280;34521;33.042;-96.586;2023-04-05T08:01:42;98536.29;;;22.69;35.07
48718;BME280;34521;33.042;-96.586;2023-04-05T08:04:06;98537.38;;;22.93;35.09
48718;BME280;34521;33.042;-96.586;2023-04-05T08:06:31;98539.89;;;22.60;35.26
48718;BME280;34521;33.042;-96.586;2023-04-05T08:08:57;98536.72;;;23.00;35.10
48718;BME280;34521;33.042;-96.586;2023-04-05T08:11:22;98539.00;;;22.03;36.85
48718;BME280;34521;33.042;-96.586;2023-04-05T08:13:47;98538.33;;;20.81;37.94
48718;BME280;34521;33.042;-96.586;2023-04-05T08:16:12;98542.43;;;20.68;37.47
48718;BME280;34521;33.042;-96.586;2023-04-05T08:18:37;98548.34;;;22.02;36.18
48718;BME280;34521;33.042;-96.586;2023-04-05T08:21:02;98548.88;;;22.41;35.51
48718;BME280;34521;33.042;-96.586;2023-04-05T08:23:27;98550.95;;;22.41;35.31
48718;BME280;34521;33.042;-96.586;2023-04-05T08:25:53;98555.60;;;22.90;34.71
48718;BME280;34521;33.042;-96.586;2023-04-05T08:28:18;98558.65;;;22.36;35.13
48718;BME280;34521;33.042;-96.586;2023-04-05T08:30:43;98557.47;;;22.82;34.93
48718;BME280;34521;33.042;-96.586;2023-04-05T08:33:08;98554.46;;;23.02;34.74
48718;BME280;34521;33.042;-96.586;2023-04-05T08:35:36;98554.69;;;22.60;34.66
48718;BME280;34521;33.042;-96.586;2023-04-05T08:37:59;98563.01;;;22.19;37.73
48718;BME280;34521;33.042;-96.586;2023-04-05T08:40:30;98575.13;;;21.54;39.70
48718;BME280;34521;33.042;-96.586;2023-04-05T08:42:57;98583.27;;;21.69;40.65
48718;BME280;34521;33.042;-96.586;2023-04-05T08:45:17;98578.93;;;22.20;39.47
48718;BME280;34521;33.042;-96.586;2023-04-05T08:47:41;98581.86;;;22.06;39.29
48718;BME280;34521;33.042;-96.586;2023-04-05T08:50:08;98576.42;;;22.51;38.50
48718;BME280;34521;33.042;-96.586;2023-04-05T08:52:33;98576.65;;;22.79;37.83
48718;BME280;34521;33.042;-96.586;2023-04-05T08:54:57;98579.66;;;21.04;39.69
48718;BME280;34521;33.042;-96.586;2023-04-05T08:57:24;98594.69;;;21.16;39.01
48718;BME280;34521;33.042;-96.586;2023-04-05T08:59:47;98613.81;;;20.87;38.91
48718;BME280;34521;33.042;-96.586;2023-04-05T09:02:16;98629.52;;;21.66;37.50
48718;BME280;34521;33.042;-96.586;2023-04-05T09:04:38;98636.94;;;22.24;36.50
48718;BME280;34521;33.042;-96.586;2023-04-05T09:07:03;98645.62;;;22.98;35.85
48718;BME280;34521;33.042;-96.586;2023-04-05T09:09:32;98643.46;;;22.59;36.10
48718;BME280;34521;33.042;-96.586;2023-04-05T09:11:52;98644.23;;;22.81;35.79
48718;BME280;34521;33.042;-96.586;2023-04-05T09:14:18;98644.06;;;22.83;35.78
48718;BME280;34521;33.042;-96.586;2023-04-05T09:16:43;98625.47;;;22.60;35.77
48718;BME280;34521;33.042;-96.586;2023-04-05T09:19:09;98604.76;;;22.92;35.68
48718;BME280;34521;33.042;-96.586;2023-04-05T09:23:59;98645.79;;;22.34;35.89
48718;BME280;34521;33.042;-96.586;2023-04-05T09:26:25;98614.29;;;20.98;38.43
48718;BME280;34521;33.042;-96.586;2023-04-05T09:28:50;98626.15;;;21.19;37.41
48718;BME280;34521;33.042;-96.586;2023-04-05T09:31:31;98658.38;;;21.02;38.41
48718;BME280;34521;33.042;-96.586;2023-04-05T09:33:42;98686.49;;;21.59;36.75
48718;BME280;34521;33.042;-96.586;2023-04-05T09:36:07;98700.80;;;21.90;36.00
48718;BME280;34521;33.042;-96.586;2023-04-05T09:38:42;98676.02;;;22.40;35.71
48718;BME280;34521;33.042;-96.586;2023-04-05T09:40:56;98653.12;;;21.03;39.42
48718;BME280;34521;33.042;-96.586;2023-04-05T09:43:35;98643.61;;;21.46;39.20
48718;BME280;34521;33.042;-96.586;2023-04-05T09:45:47;98642.34;;;22.17;37.60
48718;BME280;34521;33.042;-96.586;2023-04-05T09:48:13;98659.84;;;22.64;36.94
48718;BME280;34521;33.042;-96.586;2023-04-05T09:50:37;98674.06;;;22.47;37.12
48718;BME280;34521;33.042;-96.586;2023-04-05T09:53:08;98715.10;;;22.85;36.57
48718;BME280;34521;33.042;-96.586;2023-04-05T09:55:28;98751.30;;;22.91;36.65
48718;BME280;34521;33.042;-96.586;2023-04-05T09:57:52;98720.76;;;22.76;36.51
48718;BME280;34521;33.042;-96.586;2023-04-05T10:00:20;98687.82;;;20.40;39.12
48718;BME280;34521;33.042;-96.586;2023-04-05T10:02:42;98693.57;;;20.65;38.54
48718;BME280;34521;33.042;-96.586;2023-04-05T10:05:09;98711.07;;;21.26;38.29
48718;BME280;34521;33.042;-96.586;2023-04-05T10:07:33;98714.52;;;21.56;36.86
48718;BME280;34521;33.042;-96.586;2023-04-05T10:09:58;98700.24;;;22.22;36.02
48718;BME280;34521;33.042;-96.586;2023-04-05T10:12:26;98703.49;;;22.41;35.80
48718;BME280;34521;33.042;-96.586;2023-04-05T10:14:50;98707.74;;;22.49;35.72
48718;BME280;34521;33.042;-96.586;2023-04-05T10:17:18;98725.24;;;23.08;35.29
48718;BME280;34521;33.042;-96.586;2023-04-05T10:22:10;98736.89;;;22.82;35.43
48718;BME280;34521;33.042;-96.586;2023-04-05T10:24:36;98728.41;;;22.48;35.34
48718;BME280;34521;33.042;-96.586;2023-04-05T10:27:04;98713.13;;;22.79;35.30
48718;BME280;34521;33.042;-96.586;2023-04-05T10:29:29;98694.67;;;20.61;38.85
48718;BME280;34521;33.042;-96.586;2023-04-05T10:31:50;98703.17;;;20.23;38.79
48718;BME280;34521;33.042;-96.586;2023-04-05T10:34:18;98712.98;;;21.03;37.86
48718;BME280;34521;33.042;-96.586;2023-04-05T10:36:41;98730.12;;;21.83;36.49
48718;BME280;34521;33.042;-96.586;2023-04-05T10:39:03;98707.95;;;22.49;36.43
48718;BME280;34521;33.042;-96.586;2023-04-05T10:41:26;98708.32;;;20.23;41.20
48718;BME280;34521;33.042;-96.586;2023-04-05T10:43:54;98712.90;;;22.08;37.83
48718;BME280;34521;33.042;-96.586;2023-04-05T10:46:19;98735.78;;;22.07;37.61
48718;BME280;34521;33.042;-96.586;2023-04-05T10:48:46;98757.84;;;22.45;37.05
48718;BME280;34521;33.042;-96.586;2023-04-05T10:51:08;98773.85;;;22.34;36.78
48718;BME280;34521;33.042;-96.586;2023-04-05T10:53:33;98798.55;;;22.80;36.34
48718;BME280;34521;33.042;-96.586;2023-04-05T10:56:00;98821.46;;;22.93;36.12
48718;BME280;34521;33.042;-96.586;2023-04-05T10:58:24;98848.66;;;22.92;36.16
48718;BME280;34521;33.042;-96.586;2023-04-05T11:00:49;98895.03;;;22.22;37.56
48718;BME280;34521;33.042;-96.586;2023-04-05T11:05:40;98909.54;;;20.17;38.74
48718;BME280;34521;33.042;-96.586;2023-04-05T11:08:06;98911.36;;;21.01;38.20
48718;BME280;34521;33.042;-96.586;2023-04-05T11:10:31;98902.53;;;21.93;36.47
48718;BME280;34521;33.042;-96.586;2023-04-05T11:13:05;98898.02;;;22.18;36.24
48718;BME280;34521;33.042;-96.586;2023-04-05T11:15:27;98916.35;;;22.31;35.81
48718;BME280;34521;33.042;-96.586;2023-04-05T11:20:12;98958.48;;;22.23;35.71
48718;BME280;34521;33.042;-96.586;2023-04-05T11:22:37;98968.69;;;22.30;36.06
48718;BME280;34521;33.042;-96.586;2023-04-05T11:25:02;98942.04;;;22.40;35.67
48718;BME280;34521;33.042;-96.586;2023-04-05T11:27:28;98929.09;;;22.57;35.86
48718;BME280;34521;33.042;-96.586;2023-04-05T11:29:54;98936.12;;;22.49;36.06
48718;BME280;34521;33.042;-96.586;2023-04-05T11:32:18;98934.12;;;22.07;36.37
48718;BME280;34521;33.042;-96.586;2023-04-05T11:34:46;98951.97;;;20.09;39.46
48718;BME280;34521;33.042;-96.586;2023-04-05T11:37:10;98951.70;;;20.09;38.58
48718;BME280;34521;33.042;-96.586;2023-04-05T11:39:35;98932.19;;;20.15;39.37
48718;BME280;34521;33.042;-96.586;2023-04-05T11:42:02;98926.95;;;20.96;39.00
48718;BME280;34521;33.042;-96.586;2023-04-05T11:44:25;98940.79;;;21.92;37.51
48718;BME280;34521;33.042;-96.586;2023-04-05T11:46:51;98980.11;;;21.90;36.88
48718;BME280;34521;33.042;-96.586;2023-04-05T11:49:15;98972.06;;;21.88;36.89
48718;BME280;34521;33.042;-96.586;2023-04-05T11:51:41;98972.28;;;22.19;36.47
48718;BME280;34521;33.042;-96.586;2023-04-05T11:54:06;98995.76;;;22.64;35.87
48718;BME280;34521;33.042;-96.586;2023-04-05T11:56:31;99018.22;;;22.70;35.77
48718;BME280;34521;33.042;-96.586;2023-04-05T11:58:58;99018.97;;;22.21;36.41
48718;BME280;34521;33.042;-96.586;2023-04-05T12:01:21;99044.67;;;22.37;36.19
48718;BME280;34521;33.042;-96.586;2023-04-05T12:03:52;99065.00;;;22.51;36.08
48718;BME280;34521;33.042;-96.586;2023-04-05T12:06:11;99051.78;;;19.61;39.67
48718;BME280;34521;33.042;-96.586;2023-04-05T12:08:39;99033.56;;;20.12;38.05
48718;BME280;34521;33.042;-96.586;2023-04-05T12:11:01;99016.01;;;20.75;37.83
48718;BME280;34521;33.042;-96.586;2023-04-05T12:13:28;99079.43;;;21.66;35.98
48718;BME280;34521;33.042;-96.586;2023-04-05T12:15:51;99123.32;;;22.20;35.40
48718;BME280;34521;33.042;-96.586;2023-04-05T12:18:16;99147.68;;;21.80;35.69
48718;BME280;34521;33.042;-96.586;2023-04-05T12:20:41;99149.19;;;22.50;35.15
48718;BME280;34521;33.042;-96.586;2023-04-05T12:23:07;99149.34;;;22.18;35.27
48718;BME280;34521;33.042;-96.586;2023-04-05T12:25:33;99150.72;;;22.44;34.97
48718;BME280;34521;33.042;-96.586;2023-04-05T12:28:04;99148.94;;;22.48;34.98
48718;BME280;34521;33.042;-96.586;2023-04-05T12:30:23;99156.28;;;22.14;35.21
48718;BME280;34521;33.042;-96.586;2023-04-05T12:32:51;99172.00;;;22.32;35.29
48718;BME280;34521;33.042;-96.586;2023-04-05T12:35:16;99213.49;;;19.54;42.00
48718;BME280;34521;33.042;-96.586;2023-04-05T12:37:40;99222.44;;;19.15;44.76
48718;BME280;34521;33.042;-96.586;2023-04-05T12:40:10;99222.04;;;19.76;44.14